CheckWX is a tool to help pilots better visualize weather data.  It is not intended as a substitute for an official pre-flight weather briefing.

08:36:28 UTC

KCSV TAF
Crossville Memorial-Whitson Field Airport
Crossville, Tennessee, USA
KCSV 190525Z 1906/2006 20003KT P6SM FEW070 FM191400 20011G21KT P6SM BKN250 FM192300 21010G17KT P6SM VCTS OVC050CB FM200200 21008KT P6SM SCT050 OVC100

May-19@
06:00 UTC

May-19 @ 06:00 UTC

May-19@
14:00 UTC

May-19 @ 14:00 UTC

KCSV 190525Z 1906/2006 20003KT P6SM FEW070
Wind
  • 200° at 3 KTS
Cloud Levels
  • Few at 7,000' AGL

May-19@
14:00 UTC

May-19 @ 14:00 UTC

May-19@
23:00 UTC

May-19 @ 23:00 UTC

FM191400 20011G21KT P6SM BKN250

From

From Standard forecast or significant change

Wind
  • 200° at 11 KTS
  • {Gusting to 21 KTS
Cloud Levels
  • Broken at 25,000' AGL

May-19@
23:00 UTC

May-19 @ 23:00 UTC

May-20@
02:00 UTC

May-20 @ 02:00 UTC

FM192300 21010G17KT P6SM VCTS OVC050CB

From

From Standard forecast or significant change

Wind
  • 210° at 10 KTS
  • {Gusting to 17 KTS
Conditions
Area Thunderstorm
Cloud Levels
  • Overcast at 5,000' AGL

May-20@
02:00 UTC

May-20 @ 02:00 UTC

May-20@
06:00 UTC

May-20 @ 06:00 UTC

FM200200 21008KT P6SM SCT050 OVC100

From

From Standard forecast or significant change

Wind
  • 210° at 8 KTS
Cloud Levels
  • Scattered at 5,000' AGL
  • Overcast at 10,000' AGL